Grand Falls, Canada
Current Conditions -  °F | °C
As of 11:54 AM on Friday 24 Oct 2014 (Local Time) from KCAR Reporting Station
Light Rain Light Rain  
Wind Chill: 33°   Ceiling: 6000
Heat Index: 41°   Visibility: 7mi
Dew Point: 37°   Wind: 15mph
Humidity: 86%   Direction: 10°N
Pressure: 29.77"   Gusts: NA
Location:  47.05°N, 67.74°W
Report Text: KCAR 241454Z AUTO 01013KT 7SM -RA OVC060 05/03 A2977 RMK AO2 SLP088 P0008 60023 T00500028 55010
Loading
Personal Weather Stations






























Interactive Weather Map
Tropical Storm Tracking
New forecast layout! Learn more

10-Day Weather Forecast

Advertisements
Track Severe Weather on mobile